Time;durP1;ratioP1;P1;durP2;ratioP2;P2;SDS_P1;SDS_P2;PMS_P1;PMS_P2;Temp;Humidity;BMP_temperature;BMP_pressure;BME280_temperature;BME280_humidity;BME280_pressure;Samples;Min_cycle;Max_cycle;Signal;HPM_P1;HPM_P2
2021/04/10 00:00:38;;;;;;;2.50;2.30;;;4.80;70.40;;;;;;4861331;29;20053;-88
2021/04/10 00:03:09;;;;;;;3.72;3.17;;;4.90;69.60;;;;;;4861642;29;20053;-88
2021/04/10 00:05:37;;;;;;;4.00;2.63;;;5.00;68.90;;;;;;4861903;29;20045;-87
2021/04/10 00:08:05;;;;;;;4.18;3.70;;;5.00;69.60;;;;;;4862040;29;20060;-88
2021/04/10 00:10:33;;;;;;;6.78;3.08;;;5.00;69.50;;;;;;4844975;29;20061;-76
2021/04/10 00:13:00;;;;;;;8.75;4.60;;;5.10;69.10;;;;;;4860477;29;20068;-76
2021/04/10 00:15:29;;;;;;;5.68;3.10;;;5.20;70.20;;;;;;4849269;29;20057;-87
2021/04/10 00:17:57;;;;;;;7.25;3.35;;;5.00;70.00;;;;;;4792088;29;20054;-86
2021/04/10 00:20:28;;;;;;;4.97;4.25;;;4.80;70.40;;;;;;4794531;29;20065;-86
2021/04/10 00:22:56;;;;;;;4.03;3.58;;;4.60;71.10;;;;;;4792072;29;20057;-87
2021/04/10 00:25:25;;;;;;;7.25;6.47;;;4.50;72.20;;;;;;4794151;29;20392;-87
2021/04/10 00:27:56;;;;;;;;;;;4.50;72.40;;;;;;4805278;29;20087;-88
2021/04/10 00:30:24;;;;;;;4.10;3.67;;;4.40;72.10;;;;;;4824885;29;19935;-78
2021/04/10 00:32:51;;;;;;;5.18;3.03;;;4.60;71.60;;;;;;4842109;29;20054;-78
2021/04/10 00:35:19;;;;;;;5.38;2.08;;;4.70;71.30;;;;;;4831974;29;20065;-78
2021/04/10 00:37:47;;;;;;;5.20;3.58;;;4.70;71.10;;;;;;4833478;29;20046;-78
2021/04/10 00:40:14;;;;;;;11.45;4.05;;;4.70;70.70;;;;;;4843260;29;20058;-88
2021/04/10 00:42:42;;;;;;;4.30;3.88;;;4.80;70.80;;;;;;4842223;29;20480;-88
2021/04/10 00:45:11;;;;;;;4.28;3.05;;;4.80;70.80;;;;;;4826568;29;20420;-89
2021/04/10 00:47:39;;;;;;;4.13;3.40;;;4.60;71.40;;;;;;4843326;29;20054;-89
2021/04/10 00:50:07;;;;;;;3.45;3.15;;;4.70;70.70;;;;;;4842559;29;20559;-88
2021/04/10 00:52:36;;;;;;;3.95;3.30;;;4.80;69.80;;;;;;4843302;29;20065;-88
2021/04/10 00:55:06;;;;;;;6.28;3.75;;;4.90;69.00;;;;;;4842925;29;20053;-88
2021/04/10 00:57:34;;;;;;;4.68;3.17;;;5.10;68.60;;;;;;4837486;29;20053;-88
2021/04/10 01:00:05;;;;;;;3.67;3.38;;;5.00;69.10;;;;;;4826828;29;20061;-87
2021/04/10 01:02:33;;;;;;;5.43;3.55;;;5.00;68.30;;;;;;4842666;29;20080;-89
2021/04/10 01:05:03;;;;;;;6.38;4.20;;;5.20;67.60;;;;;;4811401;29;20058;-89
2021/04/10 01:07:31;;;;;;;9.85;3.25;;;5.20;67.20;;;;;;4801297;29;20389;-87
2021/04/10 01:09:59;;;;;;;11.57;5.13;;;5.40;66.60;;;;;;4841396;29;20503;-88
2021/04/10 01:12:38;;;;;;;4.40;4.00;;;5.40;68.60;;;;;;4811115;29;20076;-87
2021/04/10 01:15:36;;;;;;;6.03;3.67;;;4.90;71.80;;;;;;4842501;29;20121;-88
2021/04/10 01:18:27;;;;;;;3.38;3.08;;;4.30;74.30;;;;;;4793517;29;20050;-88
2021/04/10 01:21:40;;;;;;;3.67;3.37;;;4.10;74.10;;;;;;4823893;29;20073;-88
2021/04/10 01:24:39;;;;;;;4.90;3.78;;;4.30;73.90;;;;;;4791183;29;20050;-88
2021/04/10 01:27:43;;;;;;;4.15;2.60;;;4.50;71.80;;;;;;4813417;29;20034;-89
2021/04/10 01:30:32;;;;;;;5.85;3.10;;;4.60;73.20;;;;;;4825903;29;20053;-87
2021/04/10 01:33:15;;;;;;;5.93;3.33;;;4.40;72.40;;;;;;4842629;29;20054;-88
2021/04/10 01:35:55;;;;;;;6.75;4.05;;;4.40;76.40;;;;;;4810942;29;20046;-88
2021/04/10 01:38:27;;;;;;;6.25;2.88;;;4.00;76.90;;;;;;4796307;29;20205;-88
2021/04/10 01:41:00;;;;;;;6.38;2.80;;;3.70;75.90;;;;;;4811549;29;20081;-88
2021/04/10 01:43:32;;;;;;;5.63;3.17;;;3.80;79.90;;;;;;4807855;29;20038;-89
2021/04/10 01:46:03;;;;;;;3.67;3.25;;;3.80;77.60;;;;;;4809821;29;20497;-89
2021/04/10 01:48:34;;;;;;;5.35;3.35;;;3.90;76.00;;;;;;4808434;29;20054;-89
2021/04/10 01:51:02;;;;;;;4.20;3.80;;;4.30;73.90;;;;;;4823921;29;20043;-88
2021/04/10 01:53:34;;;;;;;4.30;3.93;;;4.50;75.20;;;;;;4793258;29;20049;-88
2021/04/10 01:56:05;;;;;;;6.75;5.28;;;4.40;73.60;;;;;;4808076;29;20319;-88
2021/04/10 01:58:43;;;;;;;5.95;4.28;;;4.40;76.60;;;;;;4839812;29;20136;-88
2021/04/10 02:01:16;;;;;;;5.80;3.28;;;4.40;73.80;;;;;;4826218;29;20057;-88
2021/04/10 02:03:49;;;;;;;3.92;2.97;;;4.60;71.20;;;;;;4840942;29;20062;-87
2021/04/10 02:06:21;;;;;;;3.35;3.05;;;4.90;70.10;;;;;;4840993;29;20381;-88
2021/04/10 02:08:57;;;;;;;4.78;2.70;;;5.00;68.30;;;;;;4827576;29;20058;-88
2021/04/10 02:11:37;;;;;;;6.47;3.00;;;5.20;66.90;;;;;;4834604;29;20054;-87
2021/04/10 02:14:13;;;;;;;4.93;3.28;;;5.40;67.70;;;;;;4811941;29;20063;-87
2021/04/10 02:16:50;;;;;;;8.15;3.47;;;5.40;67.30;;;;;;4826231;29;20061;-88
2021/04/10 02:19:22;;;;;;;5.03;3.15;;;5.40;67.60;;;;;;4825190;29;20056;-89
2021/04/10 02:22:06;;;;;;;7.80;3.70;;;5.40;68.30;;;;;;4816925;29;20042;-87
2021/04/10 02:24:35;;;;;;;2.85;2.03;;;5.30;70.60;;;;;;4807644;29;20054;-77
2021/04/10 02:27:09;;;;;;;5.90;3.20;;;5.10;70.00;;;;;;4820541;29;20058;-77
2021/04/10 02:29:45;;;;;;;2.75;2.40;;;5.00;70.10;;;;;;4824751;29;20038;-77
2021/04/10 02:32:39;;;;;;;3.63;2.72;;;5.00;69.70;;;;;;4818836;29;20057;-88
2021/04/10 02:35:32;;;;;;;4.05;3.47;;;5.00;69.60;;;;;;4810939;29;20065;-88
2021/04/10 02:38:03;;;;;;;3.55;3.17;;;4.90;69.40;;;;;;4825611;29;20053;-88
2021/04/10 02:40:36;;;;;;;6.43;3.80;;;4.90;70.30;;;;;;4825308;29;20412;-88
2021/04/10 02:43:08;;;;;;;10.25;3.42;;;4.80;70.30;;;;;;4833904;29;20413;-88
2021/04/10 02:45:40;;;;;;;4.68;3.92;;;4.90;69.70;;;;;;4807507;29;20043;-88
2021/04/10 02:48:12;;;;;;;7.60;4.10;;;4.90;69.70;;;;;;4792747;29;20046;-88
2021/04/10 02:51:16;;;;;;;6.97;2.92;;;4.90;70.00;;;;;;4788730;29;20401;-87
2021/04/10 02:53:46;;;;;;;2.90;2.65;;;4.50;73.20;;;;;;4792385;29;20055;-88
2021/04/10 02:56:16;;;;;;;2.95;2.70;;;4.40;72.70;;;;;;4825136;29;20065;-88
2021/04/10 02:58:49;;;;;;;5.03;3.70;;;4.60;71.10;;;;;;4792170;29;20057;-88
2021/04/10 03:01:21;;;;;;;3.10;2.78;;;4.80;71.00;;;;;;4791903;29;20053;-87
2021/04/10 03:03:50;;;;;;;6.10;3.25;;;4.80;70.90;;;;;;4807662;29;20397;-88
2021/04/10 03:06:19;;;;;;;4.00;3.70;;;4.70;70.90;;;;;;4808014;29;20077;-88
2021/04/10 03:08:48;;;;;;;5.65;2.97;;;4.70;71.10;;;;;;4807583;29;20054;-87
2021/04/10 03:11:19;;;;;;;3.95;3.60;;;4.70;71.20;;;;;;4808813;29;20061;-87
2021/04/10 03:13:47;;;;;;;2.88;2.63;;;4.80;70.40;;;;;;4798809;29;20046;-86
2021/04/10 03:16:27;;;;;;;4.18;3.78;;;4.80;70.70;;;;;;4810407;29;20065;-87
2021/04/10 03:18:55;;;;;;;5.35;3.22;;;4.80;70.40;;;;;;4779275;29;20432;-88
2021/04/10 03:21:28;;;;;;;4.38;3.65;;;4.70;74.30;;;;;;4795438;29;20042;-88
2021/04/10 03:24:03;;;;;;;5.32;3.70;;;4.50;76.40;;;;;;4810627;29;20124;-88
2021/04/10 03:26:33;;;;;;;4.72;3.50;;;4.20;76.90;;;;;;4806761;29;20058;-87
2021/04/10 03:29:02;;;;;;;6.43;3.90;;;4.00;78.90;;;;;;4823045;29;20053;-87
2021/04/10 03:31:35;;;;;;;4.88;4.35;;;3.90;78.30;;;;;;4795673;29;20050;-87
2021/04/10 03:34:05;;;;;;;6.57;4.57;;;4.00;76.90;;;;;;4791900;29;20055;-89
2021/04/10 03:36:35;;;;;;;3.30;2.78;;;4.00;76.50;;;;;;4795498;29;20054;-89
2021/04/10 03:39:03;;;;;;;7.80;3.10;;;4.10;75.90;;;;;;4792033;29;20047;-88
2021/04/10 03:41:32;;;;;;;2.85;2.67;;;4.30;74.80;;;;;;4795267;29;20481;-88
2021/04/10 03:44:01;;;;;;;3.30;3.10;;;4.40;74.00;;;;;;4799193;29;20050;-87
2021/04/10 03:46:30;;;;;;;2.95;2.53;;;4.60;74.40;;;;;;4827994;29;20540;-88
2021/04/10 03:48:58;;;;;;;4.03;3.63;;;4.60;76.60;;;;;;4813522;29;20097;-88
2021/04/10 03:52:05;;;;;;;6.07;5.43;;;4.60;76.00;;;;;;4812455;29;20054;-87
2021/04/10 03:54:33;;;;;;;2.05;1.92;;;4.80;75.30;;;;;;4819517;29;20508;-88
2021/04/10 03:57:01;;;;;;;3.05;2.50;;;4.80;75.70;;;;;;4801485;29;20058;-88
2021/04/10 03:59:29;;;;;;;4.22;3.80;;;4.70;76.10;;;;;;4813436;29;20061;-87
2021/04/10 04:02:13;;;;;;;3.17;2.95;;;4.70;78.60;;;;;;4827828;29;20066;-88
2021/04/10 04:04:41;;;;;;;7.80;3.35;;;4.40;78.30;;;;;;4828559;29;20061;-88
2021/04/10 04:07:09;;;;;;;3.67;3.40;;;4.30;76.00;;;;;;4826755;29;20042;-87
2021/04/10 04:09:37;;;;;;;6.15;5.63;;;4.30;75.20;;;;;;4812836;29;20421;-88
2021/04/10 04:12:07;;;;;;;5.80;2.63;;;4.40;75.40;;;;;;4812860;29;20058;-88
2021/04/10 04:14:36;;;;;;;4.78;4.25;;;4.50;73.30;;;;;;4812693;29;20046;-88
2021/04/10 04:17:06;;;;;;;3.85;3.08;;;4.70;71.80;;;;;;4793175;29;20054;-87
2021/04/10 04:19:34;;;;;;;7.60;3.50;;;4.80;71.00;;;;;;4809950;29;20050;-88
2021/04/10 04:22:33;;;;;;;4.47;3.35;;;4.90;71.90;;;;;;4809358;29;20039;-87
2021/04/10 04:25:01;;;;;;;5.78;3.78;;;4.50;77.00;;;;;;4825467;29;20054;-87
2021/04/10 04:27:29;;;;;;;6.30;3.03;;;4.10;78.60;;;;;;4816107;29;20047;-87
2021/04/10 04:29:57;;;;;;;4.38;3.80;;;4.00;77.30;;;;;;4809432;29;20501;-88
2021/04/10 04:32:25;;;;;;;3.85;2.90;;;4.10;75.30;;;;;;4809825;29;20066;-88
2021/04/10 04:34:53;;;;;;;6.22;4.00;;;4.30;74.00;;;;;;4793950;29;20516;-87
2021/04/10 04:37:21;;;;;;;7.38;3.75;;;4.40;73.90;;;;;;4795575;29;20530;-88
2021/04/10 04:39:48;;;;;;;4.20;2.83;;;4.40;73.60;;;;;;4781485;29;20058;-88
2021/04/10 04:42:16;;;;;;;10.00;3.03;;;4.40;74.40;;;;;;4812032;29;20416;-88
2021/04/10 04:44:44;;;;;;;5.55;3.63;;;4.40;73.20;;;;;;4797455;29;20057;-88
2021/04/10 04:47:12;;;;;;;3.50;3.20;;;4.50;74.20;;;;;;4810537;29;20060;-78
2021/04/10 04:49:39;;;;;;;6.40;3.05;;;4.50;73.20;;;;;;4833901;29;20042;-90
2021/04/10 04:53:15;;;;;;;5.43;4.03;;;4.50;73.40;;;;;;4842964;29;20062;-87
2021/04/10 04:55:42;;;;;;;2.90;2.53;;;4.60;72.30;;;;;;4827255;29;20058;-88
2021/04/10 04:58:10;;;;;;;9.40;5.15;;;4.70;71.50;;;;;;4838482;29;20046;-88
2021/04/10 05:00:38;;;;;;;4.68;4.15;;;4.80;73.10;;;;;;4842676;29;20050;-87
2021/04/10 05:03:05;;;;;;;6.45;4.53;;;4.80;74.80;;;;;;4842594;29;20053;-87
2021/04/10 05:05:33;;;;;;;4.50;3.78;;;4.70;77.80;;;;;;4842957;29;20034;-87
2021/04/10 05:08:01;;;;;;;3.67;3.15;;;4.50;77.60;;;;;;4826543;29;20073;-87
2021/04/10 05:10:28;;;;;;;4.35;3.92;;;4.30;80.50;;;;;;4826236;29;20061;-87
2021/04/10 05:12:56;;;;;;;7.70;3.33;;;4.30;80.40;;;;;;4805136;29;20053;-88
2021/04/10 05:15:24;;;;;;;4.75;3.10;;;4.30;80.50;;;;;;4827046;29;20046;-87
2021/04/10 05:17:51;;;;;;;3.88;3.40;;;4.30;80.30;;;;;;4811140;29;20412;-86
2021/04/10 05:20:28;;;;;;;6.95;3.17;;;4.50;74.20;;;;;;4826214;29;20413;-85
2021/04/10 05:22:56;;;;;;;6.10;4.10;;;4.90;73.00;;;;;;4811528;29;20058;-85
2021/04/10 05:25:24;;;;;;;4.13;3.58;;;5.20;71.50;;;;;;4826045;29;20057;-85
2021/04/10 05:27:52;;;;;;;4.72;4.25;;;5.30;71.40;;;;;;4823433;29;20076;-85
2021/04/10 05:30:21;;;;;;;8.80;4.75;;;5.40;71.40;;;;;;4810042;29;20404;-85
2021/04/10 05:32:49;;;;;;;6.18;3.40;;;5.50;72.40;;;;;;4826588;29;20058;-85
2021/04/10 05:35:17;;;;;;;3.42;3.13;;;5.60;71.80;;;;;;4825671;29;20058;-85
2021/04/10 05:37:44;;;;;;;7.13;3.75;;;5.70;71.60;;;;;;4811107;29;20050;-85
2021/04/10 05:40:12;;;;;;;3.20;2.97;;;5.80;70.00;;;;;;4826020;29;20062;-85
2021/04/10 05:42:40;;;;;;;6.57;4.03;;;6.00;71.00;;;;;;4841841;29;20141;-85
2021/04/10 05:45:08;;;;;;;4.63;3.28;;;6.10;69.00;;;;;;4842231;29;20072;-85
2021/04/10 05:47:35;;;;;;;4.55;2.90;;;6.20;73.20;;;;;;4842798;29;20524;-85
2021/04/10 05:50:03;;;;;;;4.97;4.20;;;6.40;72.70;;;;;;4842120;29;20061;-85
2021/04/10 05:52:38;;;;;;;3.53;3.03;;;6.50;68.70;;;;;;4840913;29;20054;-85
2021/04/10 05:55:07;;;;;;;8.50;3.67;;;6.70;75.50;;;;;;4823617;29;20035;-85
2021/04/10 05:57:35;;;;;;;4.65;3.13;;;7.00;70.00;;;;;;4829784;29;20041;-85
2021/04/10 06:00:04;;;;;;;5.82;3.60;;;7.30;69.30;;;;;;4841835;29;20059;-85
2021/04/10 06:02:40;;;;;;;5.85;3.38;;;7.50;71.70;;;;;;4841716;29;20042;-85
2021/04/10 06:05:08;;;;;;;3.25;2.95;;;7.70;70.60;;;;;;4840801;29;20057;-85
2021/04/10 06:07:36;;;;;;;3.83;3.47;;;8.00;68.80;;;;;;4826478;29;20050;-85
2021/04/10 06:10:04;;;;;;;4.75;4.15;;;8.30;67.40;;;;;;4841581;29;20117;-85
2021/04/10 06:12:32;;;;;;;4.95;4.32;;;8.60;65.90;;;;;;4841566;29;20412;-85
2021/04/10 06:14:59;;;;;;;4.55;2.88;;;8.80;65.50;;;;;;4841540;29;20050;-85
2021/04/10 06:17:27;;;;;;;6.35;3.78;;;8.80;63.50;;;;;;4841782;29;20054;-85
2021/04/10 06:19:54;;;;;;;5.22;3.85;;;9.20;65.20;;;;;;4842350;29;20062;-85
2021/04/10 06:22:36;;;;;;;;;;;9.70;63.10;;;;;;4841600;29;20049;-85
2021/04/10 06:25:05;;;;;;;3.50;3.03;;;9.80;62.60;;;;;;4841415;29;19948;-84
2021/04/10 06:27:35;;;;;;;4.82;4.07;;;10.20;59.00;;;;;;4841011;29;20058;-85
2021/04/10 06:30:04;;;;;;;4.57;3.20;;;10.20;60.30;;;;;;4840678;29;20049;-85
2021/04/10 06:32:33;;;;;;;5.15;3.63;;;9.80;61.00;;;;;;4842130;29;20080;-85
2021/04/10 06:35:01;;;;;;;7.25;4.18;;;10.10;61.00;;;;;;4825472;29;20056;-85
2021/04/10 06:37:29;;;;;;;3.70;3.30;;;11.10;58.40;;;;;;4840752;29;20057;-85
2021/04/10 06:39:57;;;;;;;4.10;3.10;;;12.00;52.70;;;;;;4840380;29;20058;-86
2021/04/10 06:42:25;;;;;;;3.30;2.92;;;12.10;52.70;;;;;;4825626;29;20050;-85
2021/04/10 06:44:54;;;;;;;3.40;3.08;;;12.30;53.40;;;;;;4825135;29;20412;-85
2021/04/10 06:47:22;;;;;;;3.20;2.72;;;12.70;56.90;;;;;;4825831;29;20054;-85
2021/04/10 06:49:52;;;;;;;5.53;3.05;;;13.10;57.70;;;;;;4823053;29;20054;-85
2021/04/10 06:52:56;;;;;;;6.45;3.40;;;13.60;50.90;;;;;;4824041;29;20636;-85
2021/04/10 06:55:24;;;;;;;6.15;4.00;;;13.10;53.40;;;;;;4823136;29;20076;-85
2021/04/10 06:58:05;;;;;;;4.43;3.75;;;13.50;53.50;;;;;;4822503;29;20050;-85
2021/04/10 07:00:33;;;;;;;4.88;3.33;;;13.70;51.10;;;;;;4822927;29;20130;-85
2021/04/10 07:03:02;;;;;;;6.47;3.17;;;13.90;52.00;;;;;;4813572;29;20065;-85
2021/04/10 07:05:31;;;;;;;5.50;3.25;;;14.00;52.10;;;;;;4841354;29;20057;-85
2021/04/10 07:07:58;;;;;;;3.03;2.80;;;13.90;52.50;;;;;;4809886;29;20392;-85
2021/04/10 07:10:25;;;;;;;3.13;2.80;;;14.00;48.30;;;;;;4842481;29;20046;-85
2021/04/10 07:12:53;;;;;;;4.28;2.70;;;14.70;48.90;;;;;;4845016;29;20074;-85
2021/04/10 07:15:21;;;;;;;7.05;3.20;;;15.20;47.80;;;;;;4835122;29;20054;-85
2021/04/10 07:18:07;;;;;;;3.97;2.78;;;15.50;43.50;;;;;;4837393;29;20077;-85
2021/04/10 07:20:36;;;;;;;3.50;3.05;;;15.20;44.80;;;;;;4828292;29;20054;-85
2021/04/10 07:23:10;;;;;;;2.65;2.45;;;15.40;45.70;;;;;;4830249;29;20049;-85
2021/04/10 07:25:41;;;;;;;3.33;2.70;;;16.20;43.20;;;;;;4844366;29;20060;-84
2021/04/10 07:28:29;;;;;;;6.50;4.45;;;15.90;43.80;;;;;;4844121;29;20500;-84
2021/04/10 07:31:06;;;;;;;3.28;2.97;;;15.70;43.30;;;;;;4843542;29;20050;-84
2021/04/10 07:33:35;;;;;;;8.00;3.22;;;15.90;40.90;;;;;;4828086;29;20503;-84
2021/04/10 07:36:05;;;;;;;9.02;3.20;;;15.90;47.90;;;;;;4825414;29;20051;-84
2021/04/10 07:38:40;;;;;;;6.25;3.38;;;16.60;44.00;;;;;;4794522;29;20058;-84
2021/04/10 07:41:13;;;;;;;4.15;2.75;;;17.50;41.40;;;;;;4817966;29;20522;-85
2021/04/10 07:43:43;;;;;;;3.80;3.17;;;17.60;39.70;;;;;;4841416;29;20062;-84
2021/04/10 07:46:36;;;;;;;6.43;2.78;;;17.20;40.50;;;;;;4818116;29;20400;-85
2021/04/10 07:49:07;;;;;;;7.82;3.25;;;18.00;39.10;;;;;;4808382;29;20054;-84
2021/04/10 07:51:37;;;;;;;3.33;2.70;;;18.90;36.20;;;;;;4828187;29;20058;-85
2021/04/10 07:54:29;;;;;;;2.97;2.42;;;18.90;38.90;;;;;;4822591;29;20149;-85
2021/04/10 07:56:58;;;;;;;9.82;3.03;;;18.50;38.20;;;;;;4841911;29;20062;-85
2021/04/10 07:59:56;;;;;;;4.13;2.72;;;18.70;35.70;;;;;;4843631;29;20058;-85
2021/04/10 08:02:32;;;;;;;6.85;2.70;;;19.10;36.20;;;;;;4832715;29;20042;-85
2021/04/10 08:05:07;;;;;;;3.33;2.40;;;18.70;37.00;;;;;;4844391;29;20065;-85
2021/04/10 08:07:36;;;;;;;3.22;2.92;;;18.20;35.80;;;;;;4826581;29;20054;-84
2021/04/10 08:10:11;;;;;;;6.15;2.70;;;18.10;38.00;;;;;;4843471;29;20385;-84
2021/04/10 08:12:39;;;;;;;4.60;2.88;;;16.80;46.00;;;;;;4812732;29;20054;-84
2021/04/10 08:15:08;;;;;;;3.72;3.35;;;17.10;45.10;;;;;;4826447;29;20054;-82
2021/04/10 08:17:39;;;;;;;7.32;2.35;;;17.60;40.60;;;;;;4842459;29;20050;-84
2021/04/10 08:20:48;;;;;;;2.90;2.70;;;18.60;38.80;;;;;;4825412;29;20051;-85
2021/04/10 08:23:23;;;;;;;3.40;2.03;;;19.20;37.20;;;;;;4766647;29;20050;-81
2021/04/10 08:25:52;;;;;;;3.30;2.40;;;20.10;36.10;;;;;;4839875;29;20812;-79
2021/04/10 08:28:19;;;;;;;3.05;2.80;;;20.70;32.80;;;;;;4820910;29;20057;-79
2021/04/10 08:30:59;;;;;;;5.68;2.75;;;21.60;34.10;;;;;;4807050;29;20127;-82
2021/04/10 08:33:28;;;;;;;2.80;2.50;;;21.20;34.60;;;;;;4826480;29;20433;-84
2021/04/10 08:35:58;;;;;;;3.03;2.08;;;21.70;33.50;;;;;;4827044;29;20759;-83
2021/04/10 08:38:29;;;;;;;5.25;2.67;;;21.40;32.70;;;;;;4826209;29;20077;-82
2021/04/10 08:41:02;;;;;;;4.40;2.78;;;21.80;34.30;;;;;;4836894;29;20054;-78
2021/04/10 08:43:37;;;;;;;3.13;2.38;;;21.40;32.20;;;;;;4823341;29;20046;-79
2021/04/10 08:46:08;;;;;;;5.38;2.65;;;20.30;35.00;;;;;;4841758;29;20042;-79
2021/04/10 08:48:36;;;;;;;6.05;2.60;;;20.60;38.00;;;;;;4837921;29;20062;-80
2021/04/10 08:51:07;;;;;;;5.72;2.40;;;20.50;38.80;;;;;;4823036;29;20058;-80
2021/04/10 08:53:40;;;;;;;6.13;2.00;;;20.60;35.20;;;;;;4834549;29;20053;-80
2021/04/10 08:56:11;;;;;;;3.20;1.30;;;19.40;35.50;;;;;;4823786;29;20054;-81
2021/04/10 08:58:42;;;;;;;2.65;2.38;;;18.30;36.20;;;;;;4839236;29;20046;-80
2021/04/10 09:01:23;;;;;;;2.63;2.38;;;17.10;38.60;;;;;;4826081;29;20053;-76
2021/04/10 09:03:54;;;;;;;2.08;1.98;;;17.50;40.20;;;;;;4842880;29;20058;-81
2021/04/10 09:06:31;;;;;;;6.88;2.17;;;16.50;39.30;;;;;;4841772;29;20065;-80
2021/04/10 09:09:11;;;;;;;6.15;1.77;;;16.20;45.50;;;;;;4842682;29;20053;-82
2021/04/10 09:11:39;;;;;;;6.65;2.03;;;16.00;43.00;;;;;;4824699;29;20073;-80
2021/04/10 09:14:07;;;;;;;2.97;2.10;;;15.30;42.80;;;;;;4840877;29;20046;-81
2021/04/10 09:16:47;;;;;;;2.80;1.88;;;14.70;44.70;;;;;;4837381;29;20050;-78
2021/04/10 09:19:25;;;;;;;2.67;1.77;;;14.70;49.30;;;;;;4839921;29;20058;-79
2021/04/10 09:21:56;;;;;;;3.75;2.13;;;14.70;45.50;;;;;;4829017;29;20061;-83
2021/04/10 09:24:31;;;;;;;3.50;2.83;;;14.40;44.10;;;;;;4843140;29;20066;-78
2021/04/10 09:27:24;;;;;;;1.48;1.38;;;14.50;44.10;;;;;;4840653;29;20307;-79
2021/04/10 09:29:59;;;;;;;1.77;1.67;;;14.50;46.90;;;;;;4836833;29;20049;-81
2021/04/10 09:32:40;;;;;;;6.50;2.47;;;14.00;50.00;;;;;;4823794;29;20050;-83
2021/04/10 09:35:10;;;;;;;3.22;1.65;;;13.70;48.60;;;;;;4841921;29;20057;-78
2021/04/10 09:37:38;;;;;;;4.32;2.55;;;13.50;49.90;;;;;;4819371;29;20413;-85
2021/04/10 09:40:22;;;;;;;12.75;2.70;;;13.60;48.20;;;;;;4808031;29;20824;-81
2021/04/10 09:43:00;;;;;;;2.33;2.00;;;14.10;47.80;;;;;;4822734;29;20050;-78
2021/04/10 09:45:34;;;;;;;9.30;3.17;;;14.20;47.80;;;;;;4836522;29;20049;-79
2021/04/10 09:48:04;;;;;;;2.33;2.00;;;13.80;50.30;;;;;;4840056;29;20058;-79
2021/04/10 09:50:31;;;;;;;6.13;2.38;;;13.70;52.30;;;;;;4838881;29;20061;-78
2021/04/10 09:53:04;;;;;;;4.60;2.15;;;13.90;46.30;;;;;;4841143;29;20069;-79
2021/04/10 09:55:35;;;;;;;3.03;1.60;;;14.20;49.20;;;;;;4837541;29;20534;-79
2021/04/10 09:58:21;;;;;;;13.13;3.05;;;13.80;47.50;;;;;;4827371;29;20500;-78
2021/04/10 10:00:58;;;;;;;5.32;2.25;;;13.80;54.60;;;;;;4810772;29;20835;-79
2021/04/10 10:03:27;;;;;;;6.53;2.50;;;13.80;51.90;;;;;;4821490;29;20046;-79
2021/04/10 10:06:23;;;;;;;4.80;2.10;;;14.20;50.30;;;;;;4821688;29;20046;-78
2021/04/10 10:08:52;;;;;;;2.60;1.80;;;14.30;55.40;;;;;;4828440;29;20058;-79
2021/04/10 10:11:20;;;;;;;2.63;2.33;;;14.30;49.50;;;;;;4821160;29;20050;-78
2021/04/10 10:13:49;;;;;;;2.42;2.17;;;14.40;48.20;;;;;;4821532;29;20056;-78
2021/04/10 10:16:28;;;;;;;3.95;1.85;;;14.60;50.70;;;;;;4822907;29;20058;-79
2021/04/10 10:19:00;;;;;;;1.77;1.67;;;14.30;47.60;;;;;;4837214;29;20054;-79
2021/04/10 10:21:30;;;;;;;3.53;1.95;;;14.80;46.70;;;;;;4826745;29;20042;-79
2021/04/10 10:24:00;;;;;;;5.75;2.38;;;14.90;52.30;;;;;;4822393;29;20054;-79
2021/04/10 10:26:33;;;;;;;6.18;2.25;;;15.10;51.70;;;;;;4821044;29;20513;-79
2021/04/10 10:29:04;;;;;;;8.38;2.92;;;15.00;49.30;;;;;;4839346;29;20058;-79
2021/04/10 10:31:49;;;;;;;3.47;2.33;;;14.90;46.50;;;;;;4833095;29;20061;-75
2021/04/10 10:34:23;;;;;;;5.78;2.40;;;14.90;51.50;;;;;;4841318;29;20049;-76
2021/04/10 10:36:54;;;;;;;4.85;2.25;;;15.10;52.80;;;;;;4835585;29;20065;-81
2021/04/10 10:39:35;;;;;;;2.67;1.75;;;15.50;50.70;;;;;;4840048;29;20065;-86
2021/04/10 10:42:08;;;;;;;4.97;2.35;;;15.80;49.50;;;;;;4844848;29;20046;-86
2021/04/10 10:44:36;;;;;;;2.47;2.28;;;15.40;44.10;;;;;;4827175;29;20059;-86
2021/04/10 10:47:07;;;;;;;2.60;1.92;;;15.30;48.50;;;;;;4813137;29;20392;-87
2021/04/10 10:49:36;;;;;;;3.22;2.58;;;15.60;52.90;;;;;;4828531;29;20046;-86
2021/04/10 10:52:17;;;;;;;5.82;2.47;;;15.50;47.90;;;;;;4845533;29;20381;-86
2021/04/10 10:54:48;;;;;;;2.95;2.65;;;15.30;46.30;;;;;;4828564;29;20412;-86
2021/04/10 10:57:18;;;;;;;8.50;2.97;;;15.30;54.00;;;;;;4845163;29;20057;-86
2021/04/10 10:59:56;;;;;;;5.40;2.97;;;15.50;46.00;;;;;;4827633;29;20298;-86
2021/04/10 11:02:24;;;;;;;3.40;2.78;;;15.50;45.80;;;;;;4844676;29;20053;-88
2021/04/10 11:04:55;;;;;;;5.78;2.10;;;15.40;49.60;;;;;;4814093;29;20065;-85
2021/04/10 11:07:25;;;;;;;2.88;2.28;;;15.30;48.10;;;;;;4845972;29;20534;-86
2021/04/10 11:09:53;;;;;;;2.67;2.13;;;15.10;49.30;;;;;;4835256;29;20066;-82
2021/04/10 11:12:23;;;;;;;7.35;2.83;;;15.40;47.50;;;;;;4822007;29;20326;-83
2021/04/10 11:14:57;;;;;;;11.10;1.98;;;15.30;46.50;;;;;;4825931;29;20046;-84
2021/04/10 11:17:32;;;;;;;2.47;2.28;;;15.30;48.20;;;;;;4828889;29;20046;-84
2021/04/10 11:20:03;;;;;;;11.10;3.17;;;15.30;46.00;;;;;;4832559;29;20085;-84
2021/04/10 11:22:30;;;;;;;6.13;3.38;;;15.30;49.20;;;;;;4826505;29;20057;-84
2021/04/10 11:25:02;;;;;;;3.10;2.65;;;15.10;45.30;;;;;;4826903;29;20080;-84
2021/04/10 11:27:41;;;;;;;3.30;2.08;;;15.20;44.70;;;;;;4832611;29;20057;-84
2021/04/10 11:30:10;;;;;;;5.72;2.78;;;15.60;47.70;;;;;;4828297;29;20053;-84
2021/04/10 11:32:47;;;;;;;2.47;1.70;;;15.80;43.90;;;;;;4845102;29;20077;-83
2021/04/10 11:35:25;;;;;;;3.58;3.28;;;15.80;44.20;;;;;;4843728;29;20057;-82
2021/04/10 11:37:54;;;;;;;5.45;2.20;;;15.80;47.10;;;;;;4844177;29;20042;-82
2021/04/10 11:40:23;;;;;;;6.40;2.03;;;15.60;46.90;;;;;;4843914;29;20065;-82
2021/04/10 11:42:57;;;;;;;6.93;2.30;;;15.50;45.10;;;;;;4844196;29;20065;-85
2021/04/10 11:45:37;;;;;;;5.53;2.60;;;15.50;47.70;;;;;;4843333;29;20057;-85
2021/04/10 11:48:11;;;;;;;3.10;2.30;;;15.50;47.30;;;;;;4844849;29;20053;-85
2021/04/10 11:50:49;;;;;;;4.72;2.47;;;15.60;46.40;;;;;;4827136;29;20049;-86
2021/04/10 11:53:35;;;;;;;3.05;2.80;;;15.80;44.20;;;;;;4812626;29;20140;-82
2021/04/10 11:56:30;;;;;;;3.90;3.30;;;15.80;46.40;;;;;;4827471;29;20050;-82
2021/04/10 11:59:03;;;;;;;4.20;3.15;;;15.50;51.10;;;;;;4823956;29;20051;-82
2021/04/10 12:01:31;;;;;;;5.82;3.00;;;15.60;49.60;;;;;;4825268;29;20484;-82
2021/04/10 12:04:02;;;;;;;3.88;3.35;;;15.70;48.00;;;;;;4824589;29;20058;-81
2021/04/10 12:06:40;;;;;;;4.68;3.15;;;15.70;46.90;;;;;;4825731;29;20058;-86
2021/04/10 12:09:13;;;;;;;3.58;3.28;;;15.60;51.50;;;;;;4825806;29;20442;-87
2021/04/10 12:11:43;;;;;;;12.15;3.40;;;15.80;46.50;;;;;;4809401;29;20069;-86
2021/04/10 12:14:12;;;;;;;7.55;4.15;;;15.80;50.20;;;;;;4824086;29;20132;-86
2021/04/10 12:16:42;;;;;;;7.17;3.10;;;15.90;48.70;;;;;;4806379;29;20046;-85
2021/04/10 12:19:13;;;;;;;4.18;2.80;;;16.00;47.80;;;;;;4827114;29;20046;-81
2021/04/10 12:21:41;;;;;;;14.90;4.57;;;15.80;46.10;;;;;;4825831;29;20120;-82
2021/04/10 12:24:09;;;;;;;3.55;3.25;;;15.60;49.20;;;;;;4844080;29;20058;-82
2021/04/10 12:26:39;;;;;;;6.32;3.00;;;15.80;47.30;;;;;;4842868;29;20057;-83
2021/04/10 12:29:07;;;;;;;5.57;3.05;;;16.00;45.30;;;;;;4827088;29;20045;-82
2021/04/10 12:31:34;;;;;;;4.95;3.15;;;16.10;46.10;;;;;;4842755;29;20050;-86
2021/04/10 12:34:02;;;;;;;5.47;3.28;;;16.20;44.90;;;;;;4842617;29;20058;-86
2021/04/10 12:36:31;;;;;;;3.22;2.92;;;16.30;44.10;;;;;;4827468;29;20061;-85
2021/04/10 12:38:59;;;;;;;5.30;2.47;;;16.30;47.10;;;;;;4811736;29;20050;-85
2021/04/10 12:41:27;;;;;;;3.55;3.28;;;16.40;45.90;;;;;;4812188;29;20061;-86
2021/04/10 12:43:55;;;;;;;7.38;2.97;;;16.50;43.30;;;;;;4826863;29;20045;-85
2021/04/10 12:46:22;;;;;;;5.57;3.00;;;16.50;42.70;;;;;;4796859;29;20054;-85
2021/04/10 12:48:50;;;;;;;4.22;3.15;;;16.20;43.70;;;;;;4812416;29;20062;-85
2021/04/10 12:51:20;;;;;;;5.05;3.47;;;16.40;45.50;;;;;;4811457;29;20054;-87
2021/04/10 12:53:48;;;;;;;4.82;2.78;;;16.60;45.60;;;;;;4811726;29;20042;-85
2021/04/10 12:56:20;;;;;;;3.65;3.28;;;16.70;44.30;;;;;;4835543;29;20405;-86
2021/04/10 12:58:48;;;;;;;5.25;2.50;;;16.80;44.60;;;;;;4806770;29;20053;-85
2021/04/10 13:01:16;;;;;;;4.75;2.38;;;16.70;44.80;;;;;;4807601;29;20061;-86
2021/04/10 13:03:43;;;;;;;4.93;3.00;;;16.70;46.70;;;;;;4793948;29;20054;-85
2021/04/10 13:06:10;;;;;;;9.55;3.42;;;16.80;43.30;;;;;;4796636;29;20045;-85
2021/04/10 13:08:38;;;;;;;5.07;2.80;;;16.50;46.00;;;;;;4809445;29;20057;-85
2021/04/10 13:11:05;;;;;;;4.88;3.00;;;16.60;43.60;;;;;;4796445;29;20050;-85
2021/04/10 13:13:33;;;;;;;8.27;3.38;;;16.30;44.60;;;;;;4825801;29;20042;-86
2021/04/10 13:16:01;;;;;;;6.07;2.80;;;16.30;43.30;;;;;;4807974;29;20058;-85
2021/04/10 13:18:28;;;;;;;7.13;3.30;;;16.50;45.90;;;;;;4829602;29;20058;-84
2021/04/10 13:20:59;;;;;;;5.40;2.90;;;16.50;45.40;;;;;;4808547;29;20057;-85